Time;durP1;ratioP1;P1;durP2;ratioP2;P2;SDS_P1;SDS_P2;PMS_P1;PMS_P2;Temp;Humidity;BMP_temperature;BMP_pressure;BME280_temperature;BME280_humidity;BME280_pressure;Samples;Min_cycle;Max_cycle;Signal;HPM_P1;HPM_P2
2022/05/05 00:02:13;;;;;;;15.07;9.10;;;;;;;13.67;56.10;101889.91;5115630;28;20027;-62
2022/05/05 00:04:39;;;;;;;21.70;9.23;;;;;;;13.63;56.09;101900.47;5115465;28;20031;-63
2022/05/05 00:07:04;;;;;;;17.02;9.32;;;;;;;13.58;56.46;101894.19;5115376;28;20063;-62
2022/05/05 00:09:30;;;;;;;15.80;9.20;;;;;;;13.48;57.02;101893.13;5115402;28;20031;-62
2022/05/05 00:14:40;;;;;;;15.32;8.88;;;;;;;13.42;57.12;101895.72;5115597;28;20100;-62
2022/05/05 00:17:08;;;;;;;13.52;8.75;;;;;;;13.41;57.74;101897.47;5115277;28;20043;-62
2022/05/05 00:19:35;;;;;;;14.75;9.25;;;;;;;13.39;57.73;101903.63;5115070;28;20024;-62
2022/05/05 00:22:02;;;;;;;14.80;9.35;;;;;;;13.30;57.76;101898.16;5115233;28;20034;-62
2022/05/05 00:24:27;;;;;;;17.30;10.15;;;;;;;13.24;58.38;101898.97;5115210;28;20019;-62
2022/05/05 00:26:53;;;;;;;15.32;8.88;;;;;;;13.22;58.30;101898.91;5115413;28;20505;-62
2022/05/05 00:29:19;;;;;;;15.60;8.57;;;;;;;13.32;57.89;101897.31;5115057;28;20038;-62
2022/05/05 00:31:46;;;;;;;14.15;8.35;;;;;;;13.53;57.66;101899.41;5115087;28;20027;-62
2022/05/05 00:34:11;;;;;;;16.98;8.77;;;;;;;13.69;56.43;101895.22;5114786;28;20042;-62
2022/05/05 00:36:37;;;;;;;14.30;8.43;;;;;;;13.81;56.83;101894.50;5114893;28;20027;-62
2022/05/05 00:39:03;;;;;;;14.38;8.80;;;;;;;13.76;57.12;101895.34;5115019;28;20027;-62
2022/05/05 00:41:36;;;;;;;15.40;8.88;;;;;;;13.78;57.35;101896.25;5114594;28;20036;-62
2022/05/05 00:44:04;;;;;;;13.80;8.68;;;;;;;13.80;57.28;101896.28;5114754;28;20024;-62
2022/05/05 00:46:30;;;;;;;15.52;8.77;;;;;;;13.83;56.96;101898.97;5114661;28;20456;-63
2022/05/05 00:48:55;;;;;;;13.48;8.93;;;;;;;13.62;57.58;101888.94;5114434;28;20042;-63
2022/05/05 00:51:21;;;;;;;16.13;8.30;;;;;;;13.64;57.26;101886.31;5113799;28;20485;-62
2022/05/05 00:53:46;;;;;;;15.15;8.90;;;;;;;13.64;57.58;101887.19;5114845;28;20028;-62
2022/05/05 00:56:14;;;;;;;16.35;9.02;;;;;;;13.49;57.63;101884.31;5114469;28;20026;-62
2022/05/05 00:58:42;;;;;;;16.58;8.43;;;;;;;13.43;57.62;101886.88;5114433;28;20023;-62
2022/05/05 01:01:08;;;;;;;19.25;9.05;;;;;;;13.47;57.13;101894.91;5114409;28;20376;-62
2022/05/05 01:03:36;;;;;;;15.40;8.73;;;;;;;13.39;58.05;101890.34;5114174;28;20027;-63
2022/05/05 01:06:06;;;;;;;17.63;8.75;;;;;;;13.23;58.58;101891.84;5114323;28;20023;-62
2022/05/05 01:08:35;;;;;;;14.98;8.35;;;;;;;13.13;58.21;101892.53;5114198;28;20053;-62
2022/05/05 01:11:00;;;;;;;17.08;8.15;;;;;;;13.07;58.35;101893.31;5114329;28;20107;-62
2022/05/05 01:13:27;;;;;;;18.45;8.82;;;;;;;12.98;58.68;101888.75;5114247;28;20134;-62
2022/05/05 01:15:56;;;;;;;17.05;9.23;;;;;;;12.84;59.56;101884.06;5114244;28;20036;-62
2022/05/05 01:18:22;;;;;;;16.90;8.35;;;;;;;12.89;59.14;101888.59;5113842;28;20370;-62
2022/05/05 01:20:54;;;;;;;14.70;8.40;;;;;;;12.95;58.73;101890.47;5114218;28;20380;-62
2022/05/05 01:23:21;;;;;;;12.98;8.48;;;;;;;12.78;59.68;101882.19;5114192;28;20499;-62
2022/05/05 01:28:32;;;;;;;14.02;8.75;;;;;;;12.60;59.99;101882.75;5113919;28;20042;-62
2022/05/05 01:30:58;;;;;;;16.48;8.43;;;;;;;12.59;60.35;101888.00;5114027;28;20027;-62
2022/05/05 01:33:25;;;;;;;16.65;9.18;;;;;;;12.47;60.38;101886.03;5114063;28;20051;-62
2022/05/05 01:35:53;;;;;;;14.52;8.68;;;;;;;12.46;60.25;101885.13;5113994;28;20038;-62
2022/05/05 01:38:20;;;;;;;16.20;8.52;;;;;;;12.56;60.17;101885.31;5113956;28;20027;-62
2022/05/05 01:40:46;;;;;;;17.15;8.70;;;;;;;12.53;60.67;101892.31;5113612;28;20043;-62
2022/05/05 01:43:17;;;;;;;17.20;8.70;;;;;;;12.58;59.85;101886.22;5095518;28;20103;-62
2022/05/05 01:45:43;;;;;;;19.27;8.57;;;;;;;12.69;59.13;101888.22;5113606;28;20422;-62
2022/05/05 01:48:09;;;;;;;16.10;8.18;;;;;;;12.56;60.33;101887.97;5113739;28;20062;-62
2022/05/05 01:50:35;;;;;;;14.07;8.93;;;;;;;12.49;60.71;101895.78;5113676;28;20031;-62
2022/05/05 01:53:01;;;;;;;14.00;8.23;;;;;;;12.58;60.65;101889.75;5113627;28;20024;-62
2022/05/05 01:55:30;;;;;;;14.43;8.40;;;;;;;12.71;60.49;101885.59;5113678;28;20027;-62
2022/05/05 01:57:57;;;;;;;16.45;8.50;;;;;;;12.78;60.27;101901.66;5113585;28;20043;-62
2022/05/05 02:00:23;;;;;;;13.32;8.52;;;;;;;12.77;60.13;101894.56;5113457;28;20027;-62
2022/05/05 02:02:48;;;;;;;17.00;8.90;;;;;;;12.87;59.69;101897.38;5116080;28;20117;-62
2022/05/05 02:05:14;;;;;;;15.10;8.50;;;;;;;12.90;59.25;101887.72;5117822;28;20077;-62
2022/05/05 02:07:41;;;;;;;14.75;8.65;;;;;;;12.96;59.66;101892.22;5117638;28;20028;-62
2022/05/05 02:10:08;;;;;;;16.45;8.70;;;;;;;12.98;59.27;101898.47;5117668;28;20468;-62
2022/05/05 02:12:38;;;;;;;21.00;9.15;;;;;;;13.02;59.25;101895.00;5117769;28;20357;-62
2022/05/05 02:15:08;;;;;;;14.60;8.55;;;;;;;13.06;58.98;101896.84;5117773;28;20022;-63
2022/05/05 02:17:37;;;;;;;14.82;8.80;;;;;;;13.09;58.80;101896.88;5117488;28;20035;-62
2022/05/05 02:20:05;;;;;;;16.92;8.82;;;;;;;12.88;59.87;101897.41;5117606;28;20089;-62
2022/05/05 02:22:31;;;;;;;15.45;9.00;;;;;;;12.68;60.36;101893.50;5117566;28;20073;-62
2022/05/05 02:24:57;;;;;;;16.02;8.63;;;;;;;12.72;60.67;101900.66;5117577;28;20106;-62
2022/05/05 02:27:22;;;;;;;14.48;8.65;;;;;;;12.51;61.57;101899.38;5117361;28;20119;-62
2022/05/05 02:29:48;;;;;;;15.80;8.70;;;;;;;12.41;61.23;101897.38;5117251;28;20027;-62
2022/05/05 02:32:14;;;;;;;17.08;8.90;;;;;;;12.31;62.27;101898.06;5117544;28;20024;-62
2022/05/05 02:34:40;;;;;;;17.73;9.20;;;;;;;12.35;61.75;101906.97;5117271;28;20043;-62
2022/05/05 02:39:50;;;;;;;18.67;8.60;;;;;;;12.23;61.97;101894.38;5117771;28;20408;-62
2022/05/05 02:42:17;;;;;;;14.95;8.60;;;;;;;12.35;62.18;101894.63;5116856;28;20044;-63
2022/05/05 02:44:42;;;;;;;17.35;9.15;;;;;;;12.35;62.06;101901.69;5117139;28;20027;-62
2022/05/05 02:47:08;;;;;;;16.00;9.57;;;;;;;12.38;61.92;101899.09;5116976;28;20102;-62
2022/05/05 02:49:33;;;;;;;16.80;9.13;;;;;;;12.39;61.91;101896.47;5117031;28;20061;-63
2022/05/05 02:51:59;;;;;;;16.17;8.98;;;;;;;12.49;61.37;101902.84;5116937;28;20028;-62
2022/05/05 02:57:08;;;;;;;19.58;9.25;;;;;;;12.44;61.65;101894.81;5116751;28;20076;-62
2022/05/05 02:59:33;;;;;;;16.75;9.05;;;;;;;12.61;61.58;101907.50;5116715;28;20403;-62
2022/05/05 03:01:59;;;;;;;14.48;8.82;;;;;;;12.57;61.42;101901.25;5116741;28;20028;-62
2022/05/05 03:04:24;;;;;;;17.60;8.50;;;;;;;12.52;61.36;101900.25;5116801;28;20065;-62
2022/05/05 03:06:49;;;;;;;15.05;8.80;;;;;;;12.63;61.29;101900.47;5116642;28;20054;-62
2022/05/05 03:09:15;;;;;;;16.70;8.73;;;;;;;12.70;60.82;101902.38;5116605;28;20051;-62
2022/05/05 03:11:40;;;;;;;15.30;8.73;;;;;;;12.66;61.13;101905.81;5116399;28;20038;-62
2022/05/05 03:14:06;;;;;;;15.38;9.13;;;;;;;12.66;60.50;101905.81;5115598;28;20069;-62
2022/05/05 03:16:31;;;;;;;17.50;8.70;;;;;;;12.57;61.20;101905.66;5116480;28;20022;-62
2022/05/05 03:18:57;;;;;;;22.67;8.65;;;;;;;12.62;60.95;101907.53;5116411;28;20218;-62
2022/05/05 03:21:22;;;;;;;14.65;8.98;;;;;;;12.68;60.55;101899.69;5116532;28;20084;-62
2022/05/05 03:23:47;;;;;;;13.90;8.85;;;;;;;12.79;61.04;101905.19;5116374;28;20047;-62
2022/05/05 03:26:13;;;;;;;18.80;8.82;;;;;;;12.84;61.07;101902.63;5116315;28;20104;-62
2022/05/05 03:28:38;;;;;;;18.63;8.57;;;;;;;12.85;60.66;101909.69;5116209;28;20461;-62
2022/05/05 03:31:05;;;;;;;14.38;8.63;;;;;;;12.79;60.44;101916.69;5116457;28;20461;-62
2022/05/05 03:33:32;;;;;;;17.38;9.40;;;;;;;12.74;60.84;101923.66;5116181;28;20114;-62
2022/05/05 03:35:57;;;;;;;15.68;8.95;;;;;;;12.72;60.78;101911.28;5116072;28;20084;-62
2022/05/05 03:38:23;;;;;;;17.55;9.05;;;;;;;12.68;60.67;101909.41;5097857;28;20024;-62
2022/05/05 03:40:50;;;;;;;19.55;8.40;;;;;;;12.61;61.08;101918.09;5115830;28;20066;-62
2022/05/05 03:43:16;;;;;;;15.20;8.85;;;;;;;12.54;61.44;101909.13;5115814;28;20028;-62
2022/05/05 03:45:41;;;;;;;16.65;9.10;;;;;;;12.37;62.02;101911.44;5115886;28;20445;-62
2022/05/05 03:48:07;;;;;;;14.55;8.90;;;;;;;12.16;63.39;101917.22;5115902;28;20084;-62
2022/05/05 03:50:33;;;;;;;14.38;8.95;;;;;;;12.08;63.68;101920.56;5115831;28;20377;-62
2022/05/05 03:52:58;;;;;;;17.83;8.98;;;;;;;12.12;63.67;101923.31;5115745;28;20024;-62
2022/05/05 03:55:23;;;;;;;14.90;8.00;;;;;;;12.22;63.58;101922.63;5115850;28;20047;-62
2022/05/05 03:57:49;;;;;;;19.45;8.93;;;;;;;12.26;63.37;101926.25;5115518;28;20027;-62
2022/05/05 04:00:16;;;;;;;13.05;8.60;;;;;;;12.27;62.85;101925.38;5115629;28;20035;-62
2022/05/05 04:02:41;;;;;;;14.02;9.02;;;;;;;12.31;62.62;101923.69;5115588;28;20028;-62
2022/05/05 04:05:07;;;;;;;14.15;8.75;;;;;;;12.29;62.86;101931.63;5115565;28;20054;-62
2022/05/05 04:07:32;;;;;;;18.52;8.85;;;;;;;12.31;62.98;101932.53;5115488;28;20384;-62
2022/05/05 04:09:57;;;;;;;17.17;8.75;;;;;;;12.38;62.20;101922.97;5115163;28;20099;-62
2022/05/05 04:12:23;;;;;;;13.25;8.57;;;;;;;12.47;62.06;101931.97;5114836;28;20098;-62
2022/05/05 04:14:48;;;;;;;14.50;8.85;;;;;;;12.47;62.30;101936.41;5114757;28;20434;-62
2022/05/05 04:17:13;;;;;;;13.27;8.60;;;;;;;12.49;62.43;101930.25;5114545;28;20020;-61
2022/05/05 04:19:39;;;;;;;17.17;9.60;;;;;;;12.50;62.24;101934.72;5114696;28;20456;-62
2022/05/05 04:22:05;;;;;;;19.00;9.38;;;;;;;12.41;62.81;101946.84;5114883;28;20035;-62
2022/05/05 04:24:31;;;;;;;17.15;9.20;;;;;;;12.21;63.76;101938.50;5114607;28;20346;-61
2022/05/05 04:26:56;;;;;;;13.30;8.73;;;;;;;12.25;63.74;101945.66;5114692;28;20041;-62
2022/05/05 04:29:21;;;;;;;17.65;8.98;;;;;;;12.36;63.08;101940.56;5114494;28;20039;-62
2022/05/05 04:31:47;;;;;;;22.27;9.48;;;;;;;12.36;63.22;101940.56;5114384;28;20068;-62
2022/05/05 04:34:12;;;;;;;16.73;8.75;;;;;;;12.38;62.84;101944.16;5114391;28;20015;-62
2022/05/05 04:36:38;;;;;;;15.52;9.32;;;;;;;12.35;63.10;101947.63;5114419;28;20023;-62
2022/05/05 04:39:05;;;;;;;20.35;9.30;;;;;;;12.27;63.31;101952.75;5114435;28;20438;-62
2022/05/05 04:41:30;;;;;;;14.27;8.90;;;;;;;12.24;64.14;101957.09;5114193;28;20130;-62
2022/05/05 04:43:56;;;;;;;17.27;9.27;;;;;;;12.14;64.85;101960.41;5114134;28;20091;-62
2022/05/05 04:46:22;;;;;;;17.58;9.50;;;;;;;12.24;64.29;101965.03;5114059;28;20032;-62
2022/05/05 04:48:48;;;;;;;13.75;8.95;;;;;;;12.34;64.00;101963.50;5114017;28;20085;-62
2022/05/05 04:51:14;;;;;;;15.95;9.73;;;;;;;12.45;63.66;101959.31;5114017;28;20032;-62
2022/05/05 04:53:40;;;;;;;15.77;9.50;;;;;;;12.53;63.20;101969.22;5114285;28;20034;-62
2022/05/05 04:56:05;;;;;;;18.60;9.73;;;;;;;12.58;63.97;101966.66;5113986;28;20024;-62
2022/05/05 04:58:34;;;;;;;17.13;9.40;;;;;;;12.58;64.12;101974.59;5114046;28;20034;-62
2022/05/05 05:00:59;;;;;;;24.42;9.60;;;;;;;12.58;64.06;101969.31;5113746;28;20480;-62
2022/05/05 05:03:35;;;;;;;15.05;8.98;;;;;;;12.61;63.79;101969.38;5113864;28;20026;-62
2022/05/05 05:06:05;;;;;;;15.27;9.05;;;;;;;12.70;64.08;101968.66;5113850;28;20031;-62
2022/05/05 05:08:30;;;;;;;15.18;9.35;;;;;;;12.73;63.81;101972.28;5113776;28;20025;-62
2022/05/05 05:10:56;;;;;;;21.77;10.25;;;;;;;12.81;63.60;101967.13;5113784;28;20016;-61
2022/05/05 05:13:22;;;;;;;18.02;10.13;;;;;;;12.88;62.91;101973.44;5095449;28;20023;-62
2022/05/05 05:15:47;;;;;;;18.40;9.80;;;;;;;12.94;62.60;101974.47;5113431;28;20572;-62
2022/05/05 05:18:12;;;;;;;16.88;10.02;;;;;;;13.06;62.67;101981.78;5113541;28;20023;-62
2022/05/05 05:21:12;;;;;;;20.48;10.50;;;;;;;13.17;62.25;101985.50;5113735;28;20479;-62
2022/05/05 05:23:37;;;;;;;14.93;9.70;;;;;;;13.12;62.47;101978.31;5113576;28;20019;-62
2022/05/05 05:26:02;;;;;;;21.52;10.65;;;;;;;13.22;61.39;101985.56;5113458;28;20492;-62
2022/05/05 05:28:28;;;;;;;19.88;10.68;;;;;;;13.14;62.28;101988.09;5113370;28;20036;-62
2022/05/05 05:30:53;;;;;;;19.67;11.07;;;;;;;13.11;61.83;101993.34;5113436;28;20023;-62
2022/05/05 05:33:19;;;;;;;18.80;11.55;;;;;;;13.10;62.55;101991.53;5113233;28;20047;-62
2022/05/05 05:35:45;;;;;;;17.88;11.20;;;;;;;13.10;62.39;101999.50;5113509;28;20023;-62
2022/05/05 05:38:12;;;;;;;23.60;11.95;;;;;;;13.14;61.40;101990.75;5113014;28;20035;-62
2022/05/05 05:40:37;;;;;;;16.58;11.65;;;;;;;13.27;61.48;101987.50;5113239;28;20064;-62
2022/05/05 05:43:03;;;;;;;23.02;12.07;;;;;;;13.40;60.84;101998.31;5112939;28;20079;-62
2022/05/05 05:45:28;;;;;;;28.00;15.40;;;;;;;13.49;60.83;101996.72;5113171;28;20032;-62
2022/05/05 05:47:54;;;;;;;19.17;12.63;;;;;;;13.67;61.43;102004.13;5112914;28;20094;-62
2022/05/05 05:50:19;;;;;;;19.98;13.60;;;;;;;13.84;60.49;101998.19;5113063;28;20107;-62
2022/05/05 05:52:45;;;;;;;20.88;13.13;;;;;;;13.90;59.89;102001.81;5113105;28;20023;-62
2022/05/05 05:55:10;;;;;;;21.75;13.20;;;;;;;14.10;58.70;102007.44;5113045;28;20023;-62
2022/05/05 05:57:36;;;;;;;22.42;13.60;;;;;;;14.27;58.50;101997.94;5112939;28;20088;-62
2022/05/05 06:00:02;;;;;;;21.33;13.55;;;;;;;14.41;57.17;101995.47;5113223;28;20024;-62
2022/05/05 06:05:12;;;;;;;24.05;14.05;;;;;;;14.78;56.51;102006.63;5113324;28;20046;-62
2022/05/05 06:07:38;;;;;;;22.77;14.15;;;;;;;14.93;56.47;102006.78;5094626;28;20028;-62
2022/05/05 06:10:03;;;;;;;27.67;14.10;;;;;;;14.96;56.62;102014.81;5112885;28;20020;-63
2022/05/05 06:12:30;;;;;;;26.00;14.73;;;;;;;15.09;56.76;102015.84;5112938;28;20028;-62
2022/05/05 06:14:55;;;;;;;22.25;13.60;;;;;;;15.20;56.41;102023.94;5112943;28;20038;-62
2022/05/05 06:17:20;;;;;;;22.52;14.70;;;;;;;15.35;56.07;102016.13;5112885;28;20024;-62
2022/05/05 06:19:46;;;;;;;24.88;15.50;;;;;;;15.51;55.61;102017.16;5112984;28;20023;-62
2022/05/05 06:22:11;;;;;;;27.25;14.60;;;;;;;15.60;55.52;102006.59;5112848;28;20035;-62
2022/05/05 06:24:37;;;;;;;24.85;14.45;;;;;;;15.66;55.32;102013.75;5113111;28;20081;-62
2022/05/05 06:27:02;;;;;;;26.70;15.88;;;;;;;15.70;54.73;102024.44;5112661;28;20024;-62
2022/05/05 06:29:30;;;;;;;24.42;15.57;;;;;;;15.74;54.15;102022.72;5112626;28;20101;-62
2022/05/05 06:31:55;;;;;;;29.02;15.98;;;;;;;15.71;52.84;102020.00;5112736;28;20024;-62
2022/05/05 06:34:20;;;;;;;26.75;15.32;;;;;;;15.62;52.72;102018.13;5112739;28;20165;-62
2022/05/05 06:36:46;;;;;;;30.15;15.15;;;;;;;15.79;52.27;102026.31;5112660;28;20081;-62
2022/05/05 06:39:11;;;;;;;36.63;15.98;;;;;;;15.70;52.69;102026.22;5112680;28;20034;-62
2022/05/05 06:41:36;;;;;;;29.00;13.93;;;;;;;15.65;52.86;102030.63;5112473;28;20108;-62
2022/05/05 06:44:02;;;;;;;34.75;15.85;;;;;;;15.61;52.63;102027.00;5112532;28;20055;-62
2022/05/05 06:46:28;;;;;;;26.55;14.55;;;;;;;15.66;52.12;102022.63;5112529;28;20019;-62
2022/05/05 06:48:53;;;;;;;28.48;13.90;;;;;;;16.00;51.88;102026.47;5113405;28;20396;-62
2022/05/05 06:51:19;;;;;;;36.38;14.65;;;;;;;16.41;51.15;102023.19;5116493;28;20023;-62
2022/05/05 06:53:44;;;;;;;29.77;14.95;;;;;;;16.79;48.85;102022.53;5116389;28;20047;-62
2022/05/05 06:56:10;;;;;;;24.92;14.27;;;;;;;16.96;48.54;102025.25;5116613;28;20318;-62
2022/05/05 06:58:35;;;;;;;32.70;15.90;;;;;;;16.99;48.92;102025.25;5116738;28;20062;-62
2022/05/05 07:03:44;;;;;;;28.13;15.15;;;;;;;17.24;49.56;102026.19;5116271;28;20038;-62
2022/05/05 07:06:10;;;;;;;31.70;15.32;;;;;;;17.51;48.03;102028.94;5116578;28;20388;-62
2022/05/05 07:11:23;;;;;;;32.90;16.38;;;;;;;17.91;47.28;102038.78;5116435;28;20034;-62
2022/05/05 07:13:49;;;;;;;36.20;17.23;;;;;;;18.21;46.96;102041.41;5115959;28;20028;-62
2022/05/05 07:16:15;;;;;;;35.30;19.80;;;;;;;18.63;46.58;102042.22;5116041;28;20027;-62
2022/05/05 07:18:40;;;;;;;33.72;19.58;;;;;;;19.05;46.26;102050.06;5115970;28;20069;-62
2022/05/05 07:21:06;;;;;;;35.60;21.65;;;;;;;19.23;45.73;102058.94;5115930;28;20024;-62
2022/05/05 07:23:31;;;;;;;37.85;22.50;;;;;;;19.48;44.84;102059.63;5115988;28;20031;-62
2022/05/05 07:25:57;;;;;;;35.05;20.52;;;;;;;19.49;44.52;102058.75;5115657;28;20042;-62
2022/05/05 07:28:22;;;;;;;34.25;21.38;;;;;;;19.49;45.83;102063.25;5115977;28;20028;-62
2022/05/05 07:30:47;;;;;;;39.38;23.30;;;;;;;19.71;45.19;102064.00;5115677;28;20023;-62
2022/05/05 07:33:13;;;;;;;39.13;22.20;;;;;;;19.63;44.54;102073.91;5115894;28;20051;-62
2022/05/05 07:35:38;;;;;;;39.30;21.58;;;;;;;19.81;44.58;102065.69;5115541;28;20396;-62
2022/05/05 07:38:05;;;;;;;44.22;23.58;;;;;;;20.16;44.71;102075.22;5115774;28;20450;-62
2022/05/05 07:40:30;;;;;;;45.05;26.80;;;;;;;20.29;43.86;102062.59;5115268;28;20039;-62
2022/05/05 07:42:55;;;;;;;44.90;26.23;;;;;;;20.46;43.74;102065.97;5115452;28;20476;-62
2022/05/05 07:45:21;;;;;;;32.03;20.60;;;;;;;20.65;43.21;102064.03;5115444;28;20055;-62
2022/05/05 07:47:46;;;;;;;32.92;19.98;;;;;;;20.58;43.14;102065.88;5115316;28;20356;-62
2022/05/05 07:50:12;;;;;;;38.13;22.40;;;;;;;20.63;43.46;102065.84;5097387;28;20034;-62
2022/05/05 07:52:37;;;;;;;31.80;21.20;;;;;;;20.63;43.22;102063.16;5115419;28;20106;-62
2022/05/05 07:55:04;;;;;;;31.42;22.00;;;;;;;20.83;42.32;102066.50;5097053;28;20020;-62
2022/05/05 07:57:29;;;;;;;35.88;22.05;;;;;;;21.06;42.04;102068.88;5115011;28;20027;-62
2022/05/05 07:59:55;;;;;;;38.05;22.30;;;;;;;21.29;42.25;102076.66;5115083;28;20024;-62
2022/05/05 08:02:20;;;;;;;33.92;21.88;;;;;;;21.34;42.10;102073.91;5114986;28;20415;-62
2022/05/05 08:04:46;;;;;;;31.73;21.17;;;;;;;21.37;42.41;102072.09;5096928;28;20032;-62
2022/05/05 08:07:12;;;;;;;35.47;22.75;;;;;;;21.26;42.36;102074.00;5115012;28;20024;-62
2022/05/05 08:09:38;;;;;;;36.00;22.55;;;;;;;21.12;42.77;102071.50;5096706;28;20043;-62
2022/05/05 08:12:04;;;;;;;32.30;21.98;;;;;;;21.03;42.74;102071.63;5114741;28;20070;-62
2022/05/05 08:14:30;;;;;;;34.47;21.90;;;;;;;20.99;43.29;102078.84;5115015;28;20047;-62
2022/05/05 08:16:57;;;;;;;35.28;20.60;;;;;;;20.85;43.09;102080.78;5114778;28;20024;-62
2022/05/05 08:19:22;;;;;;;34.30;21.30;;;;;;;20.91;41.87;102083.41;5114875;28;20019;-62
2022/05/05 08:21:48;;;;;;;30.08;20.63;;;;;;;20.90;42.63;102083.44;5114755;28;20496;-62
2022/05/05 08:29:42;;;;;;;36.20;23.80;;;;;;;20.93;42.72;102095.00;5114492;28;20552;-62
2022/05/05 08:32:07;;;;;;;35.22;23.10;;;;;;;20.81;42.51;102094.28;5114646;28;20063;-62
2022/05/05 08:34:33;;;;;;;34.72;22.50;;;;;;;20.77;42.84;102096.13;5114332;28;20055;-62
2022/05/05 08:36:59;;;;;;;32.00;21.30;;;;;;;20.79;42.50;102094.31;5114628;28;20034;-62
2022/05/05 08:39:24;;;;;;;33.90;22.00;;;;;;;20.72;42.78;102103.31;5114187;28;20425;-62
2022/05/05 08:41:50;;;;;;;38.22;24.15;;;;;;;20.79;42.75;102104.16;5114206;28;20544;-62
2022/05/05 08:44:15;;;;;;;33.85;22.83;;;;;;;20.52;42.41;102105.38;5114201;28;20031;-62
2022/05/05 08:46:41;;;;;;;35.78;22.63;;;;;;;20.50;43.27;102106.25;5114448;28;20376;-62
2022/05/05 08:49:08;;;;;;;38.83;23.75;;;;;;;20.46;43.51;102100.88;5114358;28;20084;-62
2022/05/05 08:51:43;;;;;;;38.08;23.23;;;;;;;20.48;43.71;102109.88;5114274;28;20118;-62
2022/05/05 08:54:16;;;;;;;36.00;24.45;;;;;;;20.40;44.24;102115.28;5114155;28;20031;-62
2022/05/05 08:56:42;;;;;;;38.80;23.27;;;;;;;20.51;44.00;102101.75;5114205;28;20027;-62
2022/05/05 08:59:09;;;;;;;33.15;21.80;;;;;;;20.61;44.65;102111.53;5114288;28;20034;-62
2022/05/05 09:01:36;;;;;;;35.72;22.17;;;;;;;20.80;43.36;102106.81;5114173;28;20035;-62
2022/05/05 09:04:03;;;;;;;34.72;21.35;;;;;;;20.86;42.64;102111.25;5114193;28;20054;-62
2022/05/05 09:06:51;;;;;;;33.75;22.27;;;;;;;21.09;42.91;102111.84;5114495;28;20020;-62
2022/05/05 09:09:31;;;;;;;37.63;22.52;;;;;;;21.19;42.31;102116.19;5114888;28;20110;-62
2022/05/05 09:12:13;;;;;;;36.63;23.27;;;;;;;21.54;42.05;102111.25;5094854;28;20365;-62
2022/05/05 09:14:44;;;;;;;42.53;22.80;;;;;;;21.65;41.68;102112.00;5114035;28;20115;-62
2022/05/05 09:17:13;;;;;;;38.60;24.23;;;;;;;21.68;41.30;102118.22;5113702;28;20024;-62
2022/05/05 09:19:40;;;;;;;35.35;23.55;;;;;;;21.59;41.39;102112.13;5095571;28;20404;-62
2022/05/05 09:22:06;;;;;;;36.65;23.50;;;;;;;21.69;40.75;102120.00;5113787;28;20024;-62
2022/05/05 09:24:35;;;;;;;36.90;23.40;;;;;;;21.55;40.35;102119.34;5113707;28;20082;-62
2022/05/05 09:27:29;;;;;;;37.35;23.23;;;;;;;21.70;41.37;102119.09;5113499;28;20055;-62
2022/05/05 09:30:01;;;;;;;37.88;22.58;;;;;;;21.81;39.97;102118.94;5113479;28;20465;-62
2022/05/05 09:32:31;;;;;;;36.60;23.33;;;;;;;21.96;40.92;102118.66;5113649;28;20027;-62
2022/05/05 09:35:02;;;;;;;33.80;22.20;;;;;;;21.94;41.03;102119.63;5113639;28;20019;-62
2022/05/05 09:37:28;;;;;;;37.50;24.27;;;;;;;21.87;41.45;102126.00;5113617;28;20097;-62
2022/05/05 09:39:59;;;;;;;33.75;22.23;;;;;;;22.01;40.23;102126.66;5113350;28;20445;-62
2022/05/05 09:42:37;;;;;;;37.85;23.33;;;;;;;21.98;40.38;102134.81;5094916;28;20039;-62
2022/05/05 09:45:31;;;;;;;38.88;24.08;;;;;;;21.74;40.93;102130.69;5113429;28;20114;-62
2022/05/05 09:47:59;;;;;;;36.92;24.15;;;;;;;21.55;41.25;102131.91;5113086;28;20464;-62
2022/05/05 09:50:26;;;;;;;37.38;23.88;;;;;;;21.46;41.54;102130.22;5113136;28;20468;-62
2022/05/05 09:58:23;;;;;;;40.58;25.60;;;;;;;21.58;40.86;102137.22;5113563;28;20092;-62
2022/05/05 10:01:00;;;;;;;41.70;25.27;;;;;;;21.56;41.55;102137.25;5113012;28;20035;-62
2022/05/05 10:06:22;;;;;;;40.85;25.98;;;;;;;21.80;40.87;102146.75;5112994;28;20043;-62
2022/05/05 10:08:51;;;;;;;38.20;25.15;;;;;;;21.79;40.21;102144.97;5113225;28;20038;-62
2022/05/05 10:11:16;;;;;;;37.88;25.52;;;;;;;21.86;40.09;102145.78;5112867;28;20028;-62
2022/05/05 10:13:45;;;;;;;40.95;25.55;;;;;;;21.96;40.86;102145.59;5113067;28;20024;-63
2022/05/05 10:16:14;;;;;;;41.65;26.73;;;;;;;21.99;40.18;102145.56;5113153;28;20028;-63
2022/05/05 10:18:40;;;;;;;44.67;26.02;;;;;;;22.08;39.86;102141.81;5113064;28;20027;-62
2022/05/05 10:21:08;;;;;;;41.28;26.55;;;;;;;22.28;39.44;102135.25;5112745;28;20039;-62
2022/05/05 10:23:56;;;;;;;38.20;25.65;;;;;;;22.34;40.60;102136.03;5115484;28;20034;-62
2022/05/05 10:26:23;;;;;;;42.00;25.50;;;;;;;22.53;38.62;102128.53;5116800;28;20035;-62
2022/05/05 10:28:49;;;;;;;37.65;24.65;;;;;;;22.82;38.69;102133.31;5117183;28;20034;-62
2022/05/05 10:31:37;;;;;;;36.63;24.58;;;;;;;23.19;38.37;102132.63;5117050;28;20028;-62
2022/05/05 10:34:16;;;;;;;37.08;25.35;;;;;;;23.51;37.92;102131.94;5116739;28;20027;-62
2022/05/05 10:36:58;;;;;;;36.38;25.52;;;;;;;23.82;37.19;102134.84;5116729;28;20469;-62
2022/05/05 10:39:23;;;;;;;35.63;24.92;;;;;;;23.95;35.79;102127.31;5116929;28;20076;-62
2022/05/05 10:41:51;;;;;;;37.50;26.05;;;;;;;23.92;35.51;102127.38;5116575;28;20047;-62
2022/05/05 10:44:16;;;;;;;39.72;24.92;;;;;;;23.85;36.22;102129.34;5098270;28;20024;-62
2022/05/05 10:47:05;;;;;;;39.22;25.45;;;;;;;24.06;36.17;102132.44;5116833;28;20028;-62
2022/05/05 10:49:33;;;;;;;36.95;25.85;;;;;;;24.08;34.81;102136.91;5116166;28;20421;-63
2022/05/05 10:52:19;;;;;;;35.45;24.60;;;;;;;24.29;35.57;102137.28;5116847;28;20024;-63
2022/05/05 10:54:46;;;;;;;39.63;25.17;;;;;;;24.25;34.94;102136.47;5116454;28;20019;-62
2022/05/05 10:57:27;;;;;;;33.70;25.70;;;;;;;24.14;35.51;102136.72;5116575;28;20039;-62
2022/05/05 11:00:18;;;;;;;37.08;25.73;;;;;;;23.39;35.64;102132.19;5116177;28;20023;-63
2022/05/05 11:03:00;;;;;;;37.13;24.52;;;;;;;23.56;36.80;102132.72;5116518;28;20491;-62
2022/05/05 11:05:28;;;;;;;35.90;25.52;;;;;;;23.79;36.06;102131.31;5116148;28;20023;-62
2022/05/05 11:07:54;;;;;;;39.30;24.75;;;;;;;24.15;35.18;102129.50;5116301;28;20036;-62
2022/05/05 11:13:49;;;;;;;41.22;25.20;;;;;;;24.52;34.54;102134.00;5116553;28;20046;-62
2022/05/05 11:22:24;;;;;;;35.72;24.40;;;;;;;25.03;32.86;102131.66;5116328;28;20036;-62
2022/05/05 11:24:52;;;;;;;36.10;23.92;;;;;;;25.25;32.74;102131.94;5115860;28;20031;-62
2022/05/05 11:27:22;;;;;;;32.97;23.02;;;;;;;25.75;31.89;102123.19;5115580;28;20107;-62
2022/05/05 11:29:52;;;;;;;33.53;23.65;;;;;;;25.89;31.91;102123.66;5115935;28;20032;-63
2022/05/05 11:32:19;;;;;;;28.60;21.25;;;;;;;26.21;30.17;102130.72;5115623;28;20472;-62
2022/05/05 11:34:45;;;;;;;29.85;21.35;;;;;;;26.13;30.47;102132.78;5115183;28;20030;-62
2022/05/05 11:37:11;;;;;;;31.77;22.77;;;;;;;25.87;30.23;102134.53;5115729;28;20058;-62
2022/05/05 11:39:38;;;;;;;26.10;19.42;;;;;;;26.07;30.75;102124.84;5115799;28;20032;-62
2022/05/05 11:42:07;;;;;;;23.73;18.08;;;;;;;26.11;29.88;102130.13;5115258;28;20080;-62
2022/05/05 11:44:40;;;;;;;31.23;21.25;;;;;;;26.44;29.99;102127.22;5116516;28;20512;-63
2022/05/05 11:47:11;;;;;;;28.25;19.55;;;;;;;26.52;29.18;102135.09;5116093;28;20028;-62
2022/05/05 11:49:37;;;;;;;28.15;16.83;;;;;;;26.80;28.34;102119.56;5115631;28;20032;-62
2022/05/05 11:52:04;;;;;;;23.90;16.95;;;;;;;26.65;29.41;102125.56;5115483;28;20484;-62
2022/05/05 11:54:34;;;;;;;26.52;19.00;;;;;;;26.34;29.42;102120.34;5115533;28;20092;-63
2022/05/05 11:57:01;;;;;;;28.38;19.20;;;;;;;26.02;30.20;102111.47;5115453;28;20023;-62